Terminal Aerodrome Forecast
Issued by NWS

Home | Current Version | Previous Version | Text Only | Print | Product List | Glossary On
Versions: 1 2 3 4 5 6 7 8 9 10 11 12
089
FTUS43 KOAX 191737
TAFSNY
TAF
KSNY 191737Z 1918/2018 21007KT P6SM BKN200
     FM192000 17015G23KT P6SM SCT100 BKN200
     FM200400 27015KT P6SM VCSH BKN050 OVC100
     FM200800 31018G25KT P6SM BKN100
     FM201100 31022G30KT P6SM SCT250=

USA.gov is the U.S. government's official web portal to all federal, state and local government web resources and services.